Time;durP1;ratioP1;P1;durP2;ratioP2;P2;SDS_P1;SDS_P2;PMS_P1;PMS_P2;Temp;Humidity;BMP_temperature;BMP_pressure;BME280_temperature;BME280_humidity;BME280_pressure;Samples;Min_cycle;Max_cycle;Signal;HPM_P1;HPM_P2
2021/01/17 08:25:49;;;;;;;30.73;14.30;;;;;;;20.52;42.15;98523.78;21067444;27;21379;-69
2021/01/17 08:35:50;;;;;;;13.73;10.10;;;;;;;21.11;42.27;98538.22;21037354;28;20280;-66
2021/01/17 08:45:53;;;;;;;10.23;8.10;;;;;;;21.49;42.37;98537.44;21029888;28;20309;-66
2021/01/17 08:55:57;;;;;;;8.50;7.60;;;;;;;21.72;42.20;98537.50;21034044;28;20276;-67
2021/01/17 09:06:00;;;;;;;7.87;6.57;;;;;;;21.87;42.39;98556.69;21033418;28;20281;-68
2021/01/17 09:16:04;;;;;;;7.03;6.50;;;;;;;21.97;42.37;98573.75;21031830;28;20293;-68
2021/01/17 09:26:07;;;;;;;6.40;5.60;;;;;;;22.02;41.89;98579.25;21031167;28;20771;-67
2021/01/17 09:36:11;;;;;;;6.27;5.67;;;;;;;22.72;40.72;98584.38;20974016;28;20878;-73
2021/01/17 09:46:20;;;;;;;6.87;6.23;;;;;;;22.15;42.25;98603.00;20970800;28;20234;-73
2021/01/17 09:56:22;;;;;;;6.70;5.87;;;;;;;22.14;42.60;98611.00;20975876;28;20220;-73
2021/01/17 10:06:24;;;;;;;5.97;5.47;;;;;;;22.14;42.85;98616.22;20964686;28;20267;-71
2021/01/17 10:16:26;;;;;;;8.27;5.97;;;;;;;22.14;43.12;98617.03;20980403;28;20718;-71
2021/01/17 10:26:28;;;;;;;6.77;6.20;;;;;;;22.15;43.26;98616.03;20974566;28;20277;-70
2021/01/17 10:36:30;;;;;;;6.53;5.93;;;;;;;22.16;43.29;98624.69;20974318;28;20309;-70
2021/01/17 10:46:33;;;;;;;7.90;6.50;;;;;;;22.16;43.28;98615.09;20984219;28;20694;-73
2021/01/17 10:56:35;;;;;;;9.73;6.40;;;;;;;22.27;43.39;98627.72;20996092;28;20238;-78
2021/01/17 11:06:39;;;;;;;6.23;5.67;;;;;;;22.18;43.77;98618.34;21013756;28;20204;-79
2021/01/17 11:16:44;;;;;;;6.33;5.77;;;;;;;22.14;44.19;98608.38;21005566;28;20219;-74
2021/01/17 11:26:48;;;;;;;5.43;5.03;;;;;;;22.52;44.45;98604.09;21003444;28;20212;-78
2021/01/17 11:36:58;;;;;;;6.13;5.20;;;;;;;22.70;44.26;98613.28;21008892;28;20699;-80
2021/01/17 11:47:02;;;;;;;7.60;5.27;;;;;;;22.75;44.55;98602.31;21017672;28;20292;-76
2021/01/17 11:57:05;;;;;;;8.23;6.23;;;;;;;22.79;44.84;98606.19;21004324;28;20220;-83
2021/01/17 12:07:08;;;;;;;6.10;4.93;;;;;;;22.76;45.14;98606.53;20999517;28;20208;-83
2021/01/17 12:17:10;;;;;;;4.47;4.07;;;;;;;22.73;45.09;98601.66;20994883;28;20223;-81
2021/01/17 12:27:13;;;;;;;5.73;3.50;;;;;;;22.71;45.23;98608.84;20996934;28;21502;-78
2021/01/17 12:37:15;;;;;;;3.80;3.47;;;;;;;22.67;45.47;98602.38;20994795;28;20212;-79
2021/01/17 12:47:18;;;;;;;3.50;3.20;;;;;;;22.63;45.60;98596.69;21020504;28;20229;-85
2021/01/17 12:57:19;;;;;;;3.50;3.20;;;;;;;22.74;45.82;98592.84;20995623;28;20211;-83
2021/01/17 13:07:22;;;;;;;2.73;2.10;;;;;;;22.91;45.87;98594.31;21035044;28;20208;-87
2021/01/17 13:17:23;;;;;;;2.60;2.40;;;;;;;23.12;45.62;98604.91;21038520;28;20328;-84
2021/01/17 13:27:26;;;;;;;2.70;2.57;;;;;;;23.29;45.77;98606.41;21055885;28;20207;-80
2021/01/17 13:37:27;;;;;;;2.40;2.20;;;;;;;23.36;46.28;98615.16;21027521;28;20207;-77
2021/01/17 13:47:30;;;;;;;2.20;2.10;;;;;;;23.37;46.34;98616.78;21038290;28;20216;-79
2021/01/17 13:57:31;;;;;;;2.60;2.13;;;;;;;23.31;46.97;98638.44;21009993;28;20388;-81
2021/01/17 14:07:34;;;;;;;4.60;1.77;;;;;;;23.24;47.15;98653.97;21010549;28;20224;-82
2021/01/17 14:17:36;;;;;;;1.77;1.67;;;;;;;23.16;47.36;98661.09;21020529;28;20211;-80
2021/01/17 14:27:40;;;;;;;2.00;1.90;;;;;;;23.07;47.44;98662.97;21006947;28;20288;-80
2021/01/17 14:37:42;;;;;;;5.30;4.53;;;;;;;22.99;45.85;98685.75;21011534;28;20289;-79
2021/01/17 14:47:44;;;;;;;4.23;3.90;;;;;;;22.97;45.77;98699.00;21012487;28;20254;-80
2021/01/17 14:57:49;;;;;;;3.50;3.20;;;;;;;23.05;45.65;98705.94;21001385;28;20729;-80
2021/01/17 15:07:56;;;;;;;4.77;2.90;;;;;;;23.09;45.60;98718.47;21008187;28;20220;-80
2021/01/17 15:17:58;;;;;;;2.43;2.30;;;;;;;23.09;45.79;98731.53;21005729;28;20228;-80
2021/01/17 15:28:01;;;;;;;2.27;2.00;;;;;;;23.06;46.02;98739.75;20998240;28;20246;-80
2021/01/17 15:38:02;;;;;;;2.83;2.27;;;;;;;22.99;46.44;98767.56;21000477;28;20356;-79
2021/01/17 15:48:06;;;;;;;2.50;2.30;;;;;;;22.93;46.79;98762.22;21006885;28;20216;-79
2021/01/17 15:58:08;;;;;;;4.13;2.60;;;;;;;22.88;46.63;98782.84;21011735;28;20309;-81
2021/01/17 16:08:11;;;;;;;2.37;2.17;;;;;;;22.86;46.78;98801.31;21008047;28;20273;-80
2021/01/17 16:18:13;;;;;;;2.40;1.93;;;;;;;22.85;47.19;98817.16;21004350;28;20223;-79
2021/01/17 16:28:15;;;;;;;1.70;1.60;;;;;;;22.88;47.19;98832.50;21020985;28;20204;-81
2021/01/17 16:38:17;;;;;;;6.30;4.37;;;;;;;22.88;47.57;98829.88;21010447;28;20231;-81
2021/01/17 16:48:19;;;;;;;24.20;14.10;;;;;;;22.92;49.02;98842.44;21024792;28;20274;-79
2021/01/17 16:58:21;;;;;;;13.90;8.70;;;;;;;22.96;48.63;98837.66;21020083;28;20220;-80
2021/01/17 17:08:23;;;;;;;8.20;7.30;;;;;;;22.97;48.76;98849.75;21022508;28;20586;-79
2021/01/17 17:18:25;;;;;;;9.53;7.10;;;;;;;23.00;48.30;98862.50;20996297;28;20204;-81
2021/01/17 17:28:28;;;;;;;10.90;6.20;;;;;;;23.13;47.53;98860.13;21001965;28;20647;-79
2021/01/17 17:38:29;;;;;;;9.23;6.03;;;;;;;23.23;47.53;98873.78;20995771;28;20220;-80
2021/01/17 17:48:32;;;;;;;9.30;6.67;;;;;;;23.22;47.49;98882.63;21006808;28;20204;-79
2021/01/17 17:58:34;;;;;;;6.53;5.60;;;;;;;23.15;47.60;98900.81;21014655;28;20360;-79
2021/01/17 18:08:37;;;;;;;9.00;5.93;;;;;;;23.11;47.45;98901.31;21008305;28;20227;-81
2021/01/17 18:18:39;;;;;;;9.27;6.13;;;;;;;23.03;47.58;98886.50;21009809;28;20219;-81
2021/01/17 18:28:41;;;;;;;9.33;6.10;;;;;;;22.98;47.70;98891.41;20983690;28;20215;-82
2021/01/17 18:38:43;;;;;;;11.20;5.77;;;;;;;22.97;47.99;98895.03;21014694;28;20228;-80
2021/01/17 18:48:46;;;;;;;8.30;5.60;;;;;;;22.98;48.04;98895.81;21007452;28;20233;-79
2021/01/17 18:58:47;;;;;;;7.43;5.87;;;;;;;23.02;47.89;98902.34;21013322;28;20220;-80
2021/01/17 19:08:50;;;;;;;7.20;5.90;;;;;;;23.04;47.65;98903.00;20977722;28;20270;-83
2021/01/17 19:18:52;;;;;;;5.73;5.13;;;;;;;23.02;47.74;98910.19;20988474;28;20242;-81
2021/01/17 19:28:54;;;;;;;6.33;5.53;;;;;;;22.99;47.68;98921.78;21004502;28;20216;-88
2021/01/17 19:38:56;;;;;;;10.00;7.10;;;;;;;22.99;47.82;98910.53;21011081;28;20220;-80
2021/01/17 19:48:59;;;;;;;10.87;5.77;;;;;;;23.04;47.47;98922.09;21002726;28;20220;-84
2021/01/17 19:59:00;;;;;;;8.17;5.90;;;;;;;23.07;47.85;98934.84;21010899;28;20227;-83
2021/01/17 20:09:03;;;;;;;7.20;5.90;;;;;;;23.08;47.65;98918.16;21004916;28;20633;-81
2021/01/17 20:29:23;;;;;;;5.87;5.30;;;;;;;23.06;47.29;98937.59;21002609;28;20219;-84
2021/01/17 20:39:25;;;;;;;9.00;6.30;;;;;;;23.01;47.65;98937.28;20983588;28;20520;-85
2021/01/17 20:49:28;;;;;;;6.33;5.60;;;;;;;23.00;47.41;98922.59;20994166;28;20216;-83
2021/01/17 20:59:29;;;;;;;14.13;6.40;;;;;;;22.99;47.30;98923.59;20987968;28;20273;-82
2021/01/17 21:09:32;;;;;;;8.30;6.17;;;;;;;23.00;47.29;98922.59;20985270;28;20285;-84
2021/01/17 21:19:34;;;;;;;6.90;6.10;;;;;;;23.00;47.53;98933.88;20990372;28;20278;-83
2021/01/17 21:29:36;;;;;;;6.50;5.90;;;;;;;22.99;47.18;98949.75;21003959;28;20239;-83
2021/01/17 21:39:38;;;;;;;6.40;5.80;;;;;;;22.96;47.37;98934.38;21002562;28;20560;-88
2021/01/17 21:49:41;;;;;;;7.63;5.90;;;;;;;22.91;47.28;98939.28;21018020;28;20242;-88
2021/01/17 21:59:42;;;;;;;5.70;5.13;;;;;;;22.78;47.27;98924.16;21017548;28;20224;-86
2021/01/17 22:09:45;;;;;;;7.50;6.53;;;;;;;22.84;47.22;98947.00;21006881;28;20306;-82
2021/01/17 22:19:47;;;;;;;6.67;6.07;;;;;;;22.81;47.34;98955.19;21004413;28;20285;-81
2021/01/17 22:29:49;;;;;;;6.47;5.30;;;;;;;22.82;47.78;98950.78;20997235;28;20223;-82
2021/01/17 22:39:51;;;;;;;8.40;6.13;;;;;;;22.82;47.67;98956.00;21011082;28;20250;-82
2021/01/17 22:49:54;;;;;;;16.90;15.20;;;;;;;22.68;43.40;98960.13;20995116;28;20236;-81
2021/01/17 22:59:55;;;;;;;10.03;9.13;;;;;;;22.52;45.32;98954.09;21047195;28;20220;-86
2021/01/17 23:09:58;;;;;;;11.43;10.47;;;;;;;22.57;44.38;98947.41;21017371;28;20212;-83
2021/01/17 23:20:00;;;;;;;10.23;9.30;;;;;;;22.66;44.85;98942.97;21012776;28;20281;-82
2021/01/17 23:30:03;;;;;;;12.93;8.70;;;;;;;22.68;44.76;98933.16;21027747;28;20644;-82
2021/01/17 23:40:06;;;;;;;9.73;8.93;;;;;;;22.66;45.01;98929.91;21059163;28;20722;-82
2021/01/17 23:50:10;;;;;;;9.30;8.50;;;;;;;22.59;45.02;98915.91;21032756;28;20208;-84
